Wednesday, June 20, 2018, 2:41 AM CDT
Back to Local

KT82, Fredericksburg, Gillespie County Airport

Location: Fredericksburg, TX, United States Lat: 30.244
Local Time: 2:41 AM CDT ( 7:41 GMT) Lon: -98.909
Time Zone: US/Central Elev: 1696 ft

Show me the last for .
Show Decoded

2018-06-20 02:15 METAR KT82 200715Z AUTO 00000KT 10SM BKN009 OVC018 22/21 A2988 RMK AO2 T02200210
                 =
2018-06-20 01:55 METAR KT82 200655Z AUTO 00000KT 10SM SCT005 BKN011 OVC014 22/21 A2989 RMK AO2
                 T02200210 =
2018-06-20 01:35 METAR KT82 200635Z AUTO 00000KT 10SM BKN005 OVC009 22/21 A2990 RMK AO2 T02200210
                 =
2018-06-20 01:15 METAR KT82 200615Z AUTO 00000KT 5SM BR BKN005 OVC011 22/21 A2990 RMK AO2
                 T02200210 =
2018-06-20 00:55 METAR KT82 200555Z AUTO 00000KT 7SM SCT005 OVC011 22/21 A2991 RMK AO2 P0001
                 60004 T02210210 10242 20220 402820211 =
2018-06-20 00:35 METAR KT82 200535Z AUTO 00000KT 10SM BKN007 OVC013 22/21 A2991 RMK AO2 P0001
                 T02210209 =
2018-06-20 00:10 METAR KT82 200510Z AUTO 00000KT 7SM -DZ OVC005 22/21 A2992 RMK AO2 P0001
                 T02210210 =
2018-06-19 23:55 METAR KT82 200455Z AUTO 00000KT 7SM -RA OVC007 22/21 A2993 RMK AO2 T02210208 =
2018-06-19 23:35 METAR KT82 200435Z AUTO 00000KT 10SM OVC007 22/21 A2993 RMK AO2 T02210208 =
2018-06-19 23:15 METAR KT82 200415Z AUTO 00000KT 10SM BKN007 OVC010 22/21 A2992 RMK AO2 T02210210
                 =
2018-06-19 22:55 METAR KT82 200355Z AUTO 00000KT 10SM OVC007 22/21 A2991 RMK AO2 P0003 T02210210
                 =
2018-06-19 22:35 METAR KT82 200335Z AUTO 00000KT 7SM -DZ OVC005 22/21 A2991 RMK AO2 P0003
                 T02210209 =
2018-06-19 22:15 METAR KT82 200315Z AUTO 00000KT 4SM +DZ BKN005 BKN009 OVC014 22/21 A2990 RMK AO2
                 P0002 T02210209 =
2018-06-19 21:55 METAR KT82 200255Z AUTO 00000KT 5SM -RA BKN005 BKN010 OVC016 22/21 A2990 RMK AO2
                 T02220208 =
2018-06-19 21:35 METAR KT82 200235Z AUTO 00000KT 4SM -RA SCT009 BKN016 OVC026 23/20 A2990 RMK AO2
                 T02280203 =
2018-06-19 21:15 METAR KT82 200215Z AUTO 00000KT 10SM OVC026 23/20 A2990 RMK AO2 T02320200 =
2018-06-19 20:55 METAR KT82 200155Z AUTO 00000KT 10SM SCT011 OVC028 23/20 A2990 RMK AO2 T02330198
                 =
2018-06-19 20:35 METAR KT82 200135Z AUTO 00000KT 10SM BKN026 OVC060 24/20 A2990 RMK AO2 T02350197
                 =
2018-06-19 20:15 METAR KT82 200115Z AUTO 00000KT 10SM SCT012 BKN023 OVC070 24/20 A2989 RMK AO2
                 T02360197 =
2018-06-19 19:55 METAR KT82 200055Z AUTO 00000KT 10SM BKN010 BKN021 OVC047 24/20 A2989 RMK AO2
                 T02370203 =
2018-06-19 19:35 METAR KT82 200035Z AUTO 00000KT 10SM SCT010 SCT015 OVC047 24/20 A2989 RMK AO2
                 T02380202 =
2018-06-19 19:15 METAR KT82 200015Z AUTO 00000KT 10SM SCT012 BKN021 OVC027 24/20 A2989 RMK AO2
                 T02370201 =
2018-06-19 18:55 METAR KT82 192355Z AUTO 00000KT 7SM SCT009 BKN014 OVC031 25/20 A2988 RMK AO2
                 T02470202 10282 20243 =
2018-06-19 18:35 METAR KT82 192335Z AUTO 09005G15KT 10SM SCT016 BKN031 OVC037 26/20 A2987 RMK AO2
                 T02580203 =
2018-06-19 18:15 METAR KT82 192315Z AUTO 00000KT 10SM OVC032 26/20 A2987 RMK AO2 T02630202 =
2018-06-19 17:55 METAR KT82 192255Z AUTO 00000KT 10SM SCT016 OVC028 26/21 A2988 RMK AO2 T02560205
                 =
2018-06-19 17:35 METAR KT82 192235Z AUTO 00000KT 10SM BKN030 BKN035 OVC075 26/20 A2988 RMK AO2
                 T02560202 =
2018-06-19 17:15 METAR KT82 192215Z AUTO 00000KT 10SM SCT015 SCT021 BKN026 25/21 A2988 RMK AO2
                 T02520205 =
2018-06-19 16:55 METAR KT82 192155Z AUTO 00000KT 10SM SCT027 SCT036 BKN070 26/21 A2988 RMK AO2
                 T02580210 =
2018-06-19 16:35 METAR KT82 192135Z AUTO 00000KT 10SM -RA SCT017 BKN038 OVC070 25/21 A2988 RMK
                 AO2 T02450211 =
2018-06-19 16:15 METAR KT82 192115Z AUTO 00000KT 10SM SCT027 BKN035 BKN050 27/20 A2988 RMK AO2
                 LTG DSNT SE T02660202 =
2018-06-19 15:55 METAR KT82 192055Z AUTO 00000KT 10SM SCT025 SCT033 BKN050 28/20 A2988 RMK AO2
                 T02790199 =
2018-06-19 15:35 METAR KT82 192035Z AUTO 00000KT 10SM SCT022 SCT027 BKN033 27/20 A2988 RMK AO2
                 T02730200 =
2018-06-19 15:15 METAR KT82 192015Z AUTO 00000KT 10SM SCT020 BKN029 OVC060 26/20 A2989 RMK AO2
                 T02580204 =
2018-06-19 14:55 METAR KT82 191955Z AUTO 12004KT 10SM BKN022 BKN028 OVC047 27/21 A2989 RMK AO2
                 T02660208 =
2018-06-19 14:35 METAR KT82 191935Z AUTO 11004KT 10SM -RA SCT022 BKN028 OVC041 25/21 A2990 RMK
                 AO2 T02520211 =
2018-06-19 14:15 METAR KT82 191915Z AUTO 09005KT 10SM SCT018 BKN041 OVC049 27/20 A2990 RMK AO2
                 T02730198 =
2018-06-19 13:55 METAR KT82 191855Z AUTO 11006KT 10SM BKN018 BKN030 OVC041 26/20 A2991 RMK AO2
                 T02640203 =
2018-06-19 13:35 METAR KT82 191835Z AUTO 07011KT 10SM BKN018 BKN038 BKN045 27/21 A2992 RMK AO2
                 T02670205 =
2018-06-19 13:15 METAR KT82 191815Z AUTO 09011G16KT 10SM SCT014 SCT019 BKN027 27/20 A2992 RMK AO2
                 LTG DSNT S T02650203 =
2018-06-19 12:55 METAR KT82 191755Z AUTO 09006G15KT 10SM SCT014 BKN020 OVC040 26/21 A2993 RMK AO2
                 60002 T02560210 10259 20212 =
2018-06-19 12:35 METAR KT82 191735Z AUTO 09008KT 10SM OVC016 26/21 A2994 RMK AO2 T02570207 =
2018-06-19 12:15 METAR KT82 191715Z AUTO 07008KT 10SM OVC014 26/21 A2994 RMK AO2 T02550209 =
2018-06-19 11:55 METAR KT82 191655Z AUTO 09004KT 10SM BKN014 OVC021 24/21 A2994 RMK AO2 T02420207
                 =
2018-06-19 11:35 METAR KT82 191635Z AUTO 08006KT 10SM SCT016 BKN025 OVC030 25/21 A2994 RMK AO2
                 T02500205 =
2018-06-19 11:15 METAR KT82 191615Z AUTO 00000KT 10SM SCT012 BKN022 OVC030 25/21 A2994 RMK AO2
                 T02490210 =
2018-06-19 10:55 METAR KT82 191555Z AUTO 00000KT 10SM BKN012 OVC022 24/21 A2994 RMK AO2 P0001
                 T02370212 =
2018-06-19 10:35 METAR KT82 191535Z AUTO 00000KT 10SM SCT007 BKN021 OVC030 23/22 A2994 RMK AO2
                 P0001 T02320216 =
2018-06-19 10:15 METAR KT82 191515Z AUTO 00000KT 3SM +RA BKN005 OVC011 22/21 A2994 RMK AO2
                 T02210207 =
2018-06-19 09:55 METAR KT82 191455Z AUTO 00000KT 2SM -DZ OVC005 22/21 A2995 RMK AO2 P0001 60001
                 T02230210 =
2018-06-19 09:35 METAR KT82 191435Z AUTO 00000KT 1 1/2SM RA OVC007 22/21 A2995 RMK AO2 T02210208
                 =
2018-06-19 09:15 METAR KT82 191415Z AUTO 07004KT 10SM OVC005 22/21 A2995 RMK AO2 T02200208 =
2018-06-19 08:55 METAR KT82 191355Z AUTO 00000KT 5SM BR OVC005 22/21 A2994 RMK AO2 T02180206 =
2018-06-19 08:35 METAR KT82 191335Z AUTO 00000KT 2SM BR OVC007 22/21 A2994 RMK AO2 T02180205 =
2018-06-19 08:15 METAR KT82 191315Z AUTO 00000KT 4SM BR BKN007 OVC012 22/20 A2994 RMK AO2
                 T02160202 =
2018-06-19 07:55 METAR KT82 191255Z AUTO 00000KT 10SM OVC010 22/20 A2995 RMK AO2 T02150201 =
2018-06-19 07:35 METAR KT82 191235Z AUTO 00000KT 10SM BKN006 OVC012 21/20 A2995 RMK AO2 T02130200
                 =
2018-06-19 07:15 METAR KT82 191215Z AUTO 00000KT 10SM BKN006 OVC014 21/20 A2994 RMK AO2 T02140201
                 =
2018-06-19 06:55 METAR KT82 191155Z AUTO 00000KT 10SM SCT008 BKN014 21/20 A2994 RMK AO2 60003
                 70004 T02110199 10233 20211 =
2018-06-19 06:35 METAR KT82 191135Z AUTO 00000KT 10SM SCT006 OVC014 21/20 A2994 RMK AO2 T02120200
                 =
2018-06-19 06:15 METAR KT82 191115Z AUTO 00000KT 10SM BKN006 BKN012 OVC018 21/20 A2995 RMK AO2
                 T02140201 =
2018-06-19 05:55 METAR KT82 191055Z AUTO 00000KT 10SM SCT006 BKN013 OVC018 21/20 A2994 RMK AO2
                 T02130201 =
2018-06-19 05:35 METAR KT82 191035Z AUTO 00000KT 4SM BR BKN006 OVC015 22/20 A2994 RMK AO2
                 T02150201 =
2018-06-19 05:15 METAR KT82 191015Z AUTO 00000KT 10SM OVC015 22/20 A2993 RMK AO2 T02150202 =
2018-06-19 04:55 METAR KT82 190955Z AUTO 00000KT 10SM SCT005 BKN015 OVC034 22/20 A2992 RMK AO2
                 P0003 T02150202 =
2018-06-19 04:35 METAR KT82 190935Z AUTO 00000KT 4SM DZ BKN005 BKN013 OVC017 22/21 A2993 RMK AO2
                 P0003 T02170205 =
2018-06-19 04:15 METAR KT82 190915Z AUTO 00000KT 3SM +DZ BKN007 OVC014 22/21 A2993 RMK AO2
                 T02200205 =
2018-06-19 03:55 METAR KT82 190855Z AUTO 00000KT 10SM SCT009 BKN012 OVC031 22/20 A2993 RMK AO2
                 T02200203 =
2018-06-19 03:35 METAR KT82 190835Z AUTO 00000KT 10SM SCT006 BKN019 OVC031 22/20 A2993 RMK AO2
                 T02200201 =
2018-06-19 03:15 METAR KT82 190815Z AUTO 00000KT 10SM SCT007 BKN011 OVC019 22/20 A2993 RMK AO2
                 T02220202 =
2018-06-19 02:55 METAR KT82 190755Z AUTO 00000KT 10SM SCT007 BKN011 OVC024 22/20 A2992 RMK AO2
                 T02220201 =

Support USWX by starting your Amazon purchase here.